Boon, Michigan
Current Conditions -  °F | °C
As of 12:14 AM on Sunday 26 Oct 2014 (Local Time) from KCAD Reporting Station
Clear Clear  
Wind Chill: 42°   Ceiling: Unl
Heat Index: 48°   Visibility: 10mi
Dew Point: 30°   Wind: 14mph
Humidity: 50%   Direction: 290°WNW
Pressure: 29.82"   Gusts: 17mph
Location:  44.29°N, 85.6°W
Report Text: KCAD 260414Z AUTO 29012G15KT 10SM CLR 08/M01 A2982 RMK AO2 T00891010
Loading
Personal Weather Stations






























Interactive Weather Map
Tropical Storm Tracking
New forecast layout! Learn more

10-Day Weather Forecast

Advertisements
Track Severe Weather on mobile